Terminal Aerodrome Forecast
Issued by NWS Sterling, VA

Current Version | Previous Version | Graphics & Text | Print | Product List | Glossary On
Versions: 1 2 3 4 5 6 7 8 9 10 11 12 13 14 15 16 17 18 19 20 21 22 23
000
FTUS41 KLWX 081735
TAFIAD
TAF
KIAD 081735Z 0818/0924 VRB03KT P6SM OVC100
     FM090600 00000KT 3SM -SN OVC070
     FM090800 00000KT 2SM -SN OVC050
     FM091300 VRB03KT 1/2SM SN OVC008
     FM091800 VRB04KT 1SM -SN OVC008=

USA.gov is the U.S. government's official web portal to all federal, state and local government web resources and services.